createdAt,value
2023-04-17T00:02:04.522Z,8.57
2023-04-17T00:04:32.038Z,8.60
2023-04-17T00:07:03.194Z,8.32
2023-04-17T00:09:30.392Z,8.18
2023-04-17T00:11:57.598Z,7.88
2023-04-17T00:14:26.158Z,8.10
2023-04-17T00:16:53.434Z,7.57
2023-04-17T00:19:20.678Z,7.80
2023-04-17T00:21:47.852Z,8.13
2023-04-17T00:24:15.058Z,7.85
2023-04-17T00:26:42.247Z,8.13
2023-04-17T00:29:09.568Z,7.63
2023-04-17T00:31:38.185Z,8.02
2023-04-17T00:34:05.411Z,7.85
2023-04-17T00:36:32.636Z,7.35
2023-04-17T00:38:59.868Z,7.97
2023-04-17T00:41:27.069Z,7.65
2023-04-17T00:43:54.342Z,7.75
2023-04-17T00:46:21.662Z,7.97
2023-04-17T00:48:50.698Z,7.68
2023-04-17T00:51:17.918Z,7.90
2023-04-17T00:53:45.107Z,6.97
2023-04-17T00:56:12.293Z,7.82
2023-04-17T00:58:39.510Z,7.93
2023-04-17T01:01:06.749Z,7.65
2023-04-17T01:03:34.187Z,9.02
2023-04-17T01:06:03.504Z,7.93
2023-04-17T01:08:30.710Z,7.93
2023-04-17T01:10:57.923Z,8.38
2023-04-17T01:13:25.994Z,7.40
2023-04-17T01:15:53.196Z,7.80
2023-04-17T01:18:20.703Z,7.70
2023-04-17T01:20:47.918Z,8.45
2023-04-17T01:23:16.418Z,7.93
2023-04-17T01:25:46.135Z,8.20
2023-04-17T01:28:13.314Z,8.27
2023-04-17T01:30:40.622Z,8.13
2023-04-17T01:33:07.891Z,7.95
2023-04-17T01:35:35.178Z,7.93
2023-04-17T01:38:02.380Z,7.53
2023-04-17T01:40:29.563Z,7.93
2023-04-17T01:42:58.058Z,8.23
2023-04-17T01:45:25.250Z,7.60
2023-04-17T01:47:52.518Z,8.05
2023-04-17T01:50:19.809Z,7.80
2023-04-17T01:52:47.026Z,7.38
2023-04-17T01:55:14.281Z,7.30
2023-04-17T01:57:42.264Z,8.55
2023-04-17T02:00:11.487Z,7.80
2023-04-17T02:02:38.888Z,7.57
2023-04-17T02:05:06.617Z,7.68
2023-04-17T02:07:33.811Z,7.82
2023-04-17T02:10:01.007Z,8.55
2023-04-17T02:12:28.330Z,8.93
2023-04-17T02:15:00.739Z,8.20
2023-04-17T02:17:29.263Z,8.10
2023-04-17T02:19:56.549Z,8.57
2023-04-17T02:22:23.793Z,7.55
2023-04-17T02:24:51.153Z,7.88
2023-04-17T02:27:18.369Z,7.50
2023-04-17T02:29:45.558Z,8.85
2023-04-17T02:32:12.745Z,8.07
2023-04-17T02:34:41.396Z,8.13
2023-04-17T02:37:08.580Z,7.97
2023-04-17T02:39:35.781Z,8.57
2023-04-17T02:42:03.102Z,8.48
2023-04-17T02:44:30.449Z,8.20
2023-04-17T02:46:57.778Z,7.93
2023-04-17T02:49:25.045Z,7.68
2023-04-17T02:51:53.753Z,8.40
2023-04-17T02:54:20.993Z,8.13
2023-04-17T02:56:48.210Z,8.63
2023-04-17T02:59:15.396Z,7.47
2023-04-17T03:01:42.906Z,8.50
2023-04-17T03:04:10.265Z,8.18
2023-04-17T03:06:37.467Z,8.40
2023-04-17T03:09:06.015Z,8.20
2023-04-17T03:11:33.195Z,7.97
2023-04-17T03:14:00.431Z,8.40
2023-04-17T03:16:27.631Z,7.88
2023-04-17T03:18:55.008Z,7.80
2023-04-17T03:21:22.178Z,8.70
2023-04-17T03:23:49.369Z,9.30
2023-04-17T03:26:17.852Z,8.90
2023-04-17T03:28:45.055Z,8.18
2023-04-17T03:31:12.228Z,8.35
2023-04-17T03:33:39.429Z,8.32
2023-04-17T03:36:06.964Z,8.02
2023-04-17T03:38:34.157Z,8.88
2023-04-17T03:41:01.534Z,8.05
2023-04-17T03:43:30.023Z,8.15
2023-04-17T03:45:57.257Z,8.55
2023-04-17T03:48:24.551Z,8.13
2023-04-17T03:50:51.836Z,8.15
2023-04-17T03:53:19.027Z,8.82
2023-04-17T03:55:46.440Z,7.90
2023-04-17T03:58:13.995Z,7.97
2023-04-17T04:00:42.495Z,8.70
2023-04-17T04:03:09.773Z,8.50
2023-04-17T04:05:37.055Z,8.75
2023-04-17T04:08:04.482Z,8.73
2023-04-17T04:10:32.428Z,8.75
2023-04-17T04:12:59.682Z,9.30
2023-04-17T04:15:26.879Z,8.70
2023-04-17T04:17:55.416Z,8.27
2023-04-17T04:20:23.195Z,8.20
2023-04-17T04:22:50.742Z,7.68
2023-04-17T04:25:17.964Z,7.93
2023-04-17T04:27:49.502Z,8.52
2023-04-17T04:30:16.723Z,9.35
2023-04-17T04:32:45.553Z,8.57
2023-04-17T04:35:14.123Z,8.48
2023-04-17T04:37:42.820Z,8.68
2023-04-17T04:40:11.017Z,7.63
2023-04-17T04:42:39.592Z,8.73
2023-04-17T04:45:07.395Z,8.63
2023-04-17T04:47:34.678Z,7.53
2023-04-17T04:50:01.945Z,7.45
2023-04-17T04:52:30.525Z,7.68
2023-04-17T04:54:57.745Z,7.40
2023-04-17T04:57:25.019Z,8.43
2023-04-17T04:59:52.209Z,8.45
2023-04-17T05:02:19.486Z,8.32
2023-04-17T05:04:46.870Z,7.43
2023-04-17T05:07:14.371Z,8.88
2023-04-17T05:09:43.022Z,7.60
2023-04-17T05:12:10.209Z,7.45
2023-04-17T05:14:37.425Z,7.07
2023-04-17T05:17:04.653Z,6.88
2023-04-17T05:19:31.915Z,8.27
2023-04-17T05:21:59.092Z,8.00
2023-04-17T05:24:26.367Z,7.60
2023-04-17T05:26:54.897Z,8.18
2023-04-17T05:29:22.121Z,8.38
2023-04-17T05:31:49.320Z,8.70
2023-04-17T05:34:16.548Z,9.05
2023-04-17T05:36:44.015Z,9.48
2023-04-17T05:39:11.438Z,9.98
2023-04-17T05:41:38.870Z,12.65
2023-04-17T05:44:07.497Z,10.98
2023-04-17T05:46:34.720Z,11.77
2023-04-17T05:49:01.931Z,10.80
2023-04-17T05:51:29.122Z,10.38
2023-04-17T05:53:56.301Z,11.18
2023-04-17T05:56:23.963Z,10.65
2023-04-17T05:58:51.149Z,12.23
2023-04-17T06:01:22.304Z,9.48
2023-04-17T06:03:49.700Z,12.43
2023-04-17T06:06:17.007Z,15.65
2023-04-17T06:08:44.226Z,17.55
2023-04-17T06:11:11.752Z,15.50
2023-04-17T06:13:38.977Z,17.70
2023-04-17T06:16:06.525Z,15.77
2023-04-17T06:18:35.157Z,17.48
2023-04-17T06:21:02.400Z,14.23
2023-04-17T06:23:29.601Z,13.13
2023-04-17T06:25:57.020Z,17.95
2023-04-17T06:28:24.328Z,15.40
2023-04-17T06:30:51.600Z,20.08
2023-04-17T06:33:18.873Z,13.05
2023-04-17T06:35:47.448Z,19.08
2023-04-17T06:38:14.668Z,13.10
2023-04-17T06:40:41.901Z,16.55
2023-04-17T06:43:09.123Z,20.80
2023-04-17T06:45:36.345Z,17.05
2023-04-17T06:48:03.672Z,16.25
2023-04-17T06:50:30.950Z,15.93
2023-04-17T06:52:59.482Z,14.23
2023-04-17T06:55:26.932Z,13.70
2023-04-17T06:57:54.712Z,11.88
2023-04-17T07:00:22.503Z,12.50
2023-04-17T07:02:49.772Z,11.90
2023-04-17T07:05:17.228Z,13.68
2023-04-17T07:07:44.609Z,15.75
2023-04-17T07:10:15.582Z,11.90
2023-04-17T07:12:42.834Z,12.75
2023-04-17T07:15:10.498Z,10.75
2023-04-17T07:17:37.746Z,13.68
2023-04-17T07:20:06.988Z,12.50
2023-04-17T07:22:34.212Z,12.00
2023-04-17T07:25:01.439Z,12.98
2023-04-17T07:27:29.963Z,10.10
2023-04-17T07:29:57.171Z,8.77
2023-04-17T07:32:25.078Z,10.07
2023-04-17T07:34:52.831Z,9.77
2023-04-17T07:37:20.077Z,10.93
2023-04-17T07:39:49.128Z,10.30
2023-04-17T07:42:16.515Z,11.80
2023-04-17T07:44:45.069Z,11.07
2023-04-17T07:47:12.347Z,11.02
2023-04-17T07:49:40.416Z,13.48
2023-04-17T07:52:07.688Z,10.77
2023-04-17T07:54:34.940Z,11.68
2023-04-17T07:57:03.413Z,14.63
2023-04-17T07:59:30.873Z,13.52
2023-04-17T08:01:59.616Z,16.65
2023-04-17T08:04:27.690Z,16.45
2023-04-17T08:06:55.120Z,12.93
2023-04-17T08:09:22.493Z,13.23
2023-04-17T08:11:56.400Z,15.50
2023-04-17T08:14:25.384Z,17.70
2023-04-17T08:16:52.827Z,11.48
2023-04-17T08:19:21.401Z,12.23
2023-04-17T08:21:49.037Z,9.48
2023-04-17T08:24:18.706Z,9.60
2023-04-17T08:26:47.061Z,10.95
2023-04-17T08:29:14.669Z,13.77
2023-04-17T08:31:42.191Z,10.82
2023-04-17T08:34:14.455Z,13.77
2023-04-17T08:36:43.971Z,12.35
2023-04-17T08:39:12.322Z,12.98
2023-04-17T08:41:40.349Z,11.40
2023-04-17T08:44:07.567Z,10.23
2023-04-17T08:46:34.966Z,10.35
2023-04-17T08:51:19.985Z,9.90
2023-04-17T08:53:48.518Z,9.00
2023-04-17T08:56:15.914Z,10.70
2023-04-17T08:58:43.103Z,11.20
2023-04-17T09:01:11.108Z,9.93
2023-04-17T09:03:42.115Z,13.18
2023-04-17T09:06:10.035Z,9.82
2023-04-17T09:08:37.234Z,9.30
2023-04-17T09:11:05.826Z,10.45
2023-04-17T09:13:40.131Z,11.07
2023-04-17T09:16:07.907Z,10.90
2023-04-17T09:18:35.439Z,11.40
2023-04-17T09:21:03.048Z,9.10
2023-04-17T09:23:30.651Z,9.40
2023-04-17T09:26:09.093Z,8.55
2023-04-17T09:28:39.178Z,9.73
2023-04-17T09:33:33.727Z,8.80
2023-04-17T09:36:16.495Z,8.57
2023-04-17T09:38:44.938Z,7.25
2023-04-17T09:41:24.122Z,10.40
2023-04-17T09:43:53.466Z,10.13
2023-04-17T09:46:31.446Z,7.15
2023-04-17T09:48:59.239Z,7.15
2023-04-17T09:51:26.603Z,7.75
2023-04-17T09:53:56.769Z,9.85
2023-04-17T09:58:52.859Z,13.38
2023-04-17T10:01:20.629Z,11.75
2023-04-17T10:03:48.140Z,10.55
2023-04-17T10:06:15.581Z,8.63
2023-04-17T10:08:42.773Z,12.07
2023-04-17T10:11:10.000Z,10.48
2023-04-17T10:13:38.514Z,10.48
2023-04-17T10:16:07.429Z,9.93
2023-04-17T10:18:34.667Z,9.40
2023-04-17T10:21:19.964Z,12.63
2023-04-17T10:23:47.151Z,11.73
2023-04-17T10:26:41.577Z,8.07
2023-04-17T10:29:08.822Z,9.63
2023-04-17T10:31:54.785Z,7.95
2023-04-17T10:34:35.773Z,7.40
2023-04-17T10:37:04.834Z,9.52
2023-04-17T10:39:46.963Z,9.10
2023-04-17T10:42:14.162Z,10.63
2023-04-17T10:44:41.373Z,7.18
2023-04-17T10:47:08.589Z,7.70
2023-04-17T10:49:48.442Z,9.00
2023-04-17T10:52:30.586Z,7.03
2023-04-17T10:55:04.041Z,8.30
2023-04-17T10:57:46.378Z,7.57
2023-04-17T11:00:14.768Z,7.75
2023-04-17T11:02:42.113Z,9.10
2023-04-17T11:05:11.952Z,7.30
2023-04-17T11:07:39.140Z,8.23
2023-04-17T11:10:06.711Z,7.57
2023-04-17T11:12:33.882Z,5.85
2023-04-17T11:15:04.287Z,6.45
2023-04-17T11:17:31.842Z,8.75
2023-04-17T11:19:59.077Z,5.90
2023-04-17T11:22:33.672Z,7.50
2023-04-17T11:25:00.902Z,6.30
2023-04-17T11:27:28.845Z,7.93
2023-04-17T11:29:56.030Z,8.13
2023-04-17T11:32:23.282Z,6.57
2023-04-17T11:34:50.527Z,6.18
2023-04-17T11:37:17.783Z,7.00
2023-04-17T11:39:46.337Z,7.53
2023-04-17T11:42:13.539Z,5.82
2023-04-17T11:44:44.259Z,7.03
2023-04-17T11:47:11.706Z,6.93
2023-04-17T11:49:39.574Z,8.02
2023-04-17T11:52:06.797Z,6.90
2023-04-17T11:54:36.905Z,8.43
2023-04-17T11:59:32.723Z,6.97
2023-04-17T12:02:01.676Z,9.40
2023-04-17T12:04:30.022Z,6.95
2023-04-17T12:06:59.593Z,7.07
2023-04-17T12:09:31.402Z,8.25
2023-04-17T12:11:59.115Z,7.50
2023-04-17T12:14:26.669Z,8.30
2023-04-17T12:16:55.261Z,6.63
2023-04-17T12:19:22.507Z,8.02
2023-04-17T12:21:49.693Z,7.80
2023-04-17T12:24:18.061Z,8.35
2023-04-17T12:26:46.290Z,8.15
2023-04-17T12:29:13.487Z,6.60
2023-04-17T12:31:41.040Z,7.25
2023-04-17T12:34:09.589Z,7.05
2023-04-17T12:36:36.951Z,7.57
2023-04-17T12:39:04.625Z,6.57
2023-04-17T12:41:31.882Z,8.10
2023-04-17T12:44:01.672Z,7.53
2023-04-17T12:46:29.048Z,7.68
2023-04-17T12:48:58.622Z,6.88
2023-04-17T12:51:27.795Z,6.85
2023-04-17T12:53:55.061Z,8.02
2023-04-17T12:56:22.254Z,9.93
2023-04-17T12:58:49.467Z,6.55
2023-04-17T13:01:16.705Z,6.65
2023-04-17T13:03:44.045Z,7.32
2023-04-17T13:06:11.420Z,6.13
2023-04-17T13:08:40.260Z,6.90
2023-04-17T13:11:07.470Z,6.68
2023-04-17T13:13:34.709Z,6.95
2023-04-17T13:16:01.956Z,6.55
2023-04-17T13:18:29.269Z,6.95
2023-04-17T13:20:57.441Z,7.30
2023-04-17T13:23:24.692Z,7.70
2023-04-17T13:25:53.215Z,6.35
2023-04-17T13:28:20.386Z,6.40
2023-04-17T13:30:47.626Z,6.65
2023-04-17T13:33:14.963Z,6.72
2023-04-17T13:35:42.161Z,6.78
2023-04-17T13:38:09.357Z,11.10
2023-04-17T13:40:38.382Z,7.47
2023-04-17T13:43:06.889Z,7.32
2023-04-17T13:45:34.107Z,7.10
2023-04-17T13:48:01.398Z,6.97
2023-04-17T13:50:28.660Z,8.80
2023-04-17T13:52:55.868Z,7.03
2023-04-17T13:55:23.069Z,6.50
2023-04-17T13:57:50.972Z,6.90
2023-04-17T14:00:20.789Z,6.20
2023-04-17T14:02:48.109Z,7.65
2023-04-17T14:05:15.574Z,7.00
2023-04-17T14:07:43.643Z,8.23
2023-04-17T14:10:11.119Z,5.78
2023-04-17T14:12:38.322Z,6.45
2023-04-17T14:15:07.237Z,6.88
2023-04-17T14:17:37.965Z,6.88
2023-04-17T14:20:05.737Z,7.80
2023-04-17T14:22:32.916Z,6.65
2023-04-17T14:25:00.146Z,7.07
2023-04-17T14:27:27.345Z,7.28
2023-04-17T14:29:54.550Z,6.95
2023-04-17T14:32:21.760Z,8.75
2023-04-17T14:34:50.326Z,5.57
2023-04-17T14:37:17.505Z,7.47
2023-04-17T14:39:44.927Z,7.68
2023-04-17T14:42:12.111Z,6.30
2023-04-17T14:44:39.313Z,6.22
2023-04-17T14:47:06.538Z,6.05
2023-04-17T14:49:33.751Z,5.47
2023-04-17T14:52:02.268Z,6.95
2023-04-17T14:54:29.483Z,9.27
2023-04-17T14:56:57.657Z,6.28
2023-04-17T14:59:24.856Z,5.80
2023-04-17T15:01:52.186Z,6.03
2023-04-17T15:04:19.610Z,5.80
2023-04-17T15:06:47.054Z,5.75
2023-04-17T15:09:15.554Z,5.68
2023-04-17T15:11:42.765Z,5.78
2023-04-17T15:14:09.965Z,6.30
2023-04-17T15:16:37.166Z,5.68
2023-04-17T15:19:04.441Z,6.40
2023-04-17T15:21:32.002Z,5.57
2023-04-17T15:23:59.214Z,7.07
2023-04-17T15:26:27.918Z,5.72
2023-04-17T15:28:55.154Z,5.75
2023-04-17T15:31:22.497Z,5.55
2023-04-17T15:33:49.721Z,5.70
2023-04-17T15:36:17.094Z,5.22
2023-04-17T15:38:44.380Z,6.15
2023-04-17T15:41:11.565Z,5.68
2023-04-17T15:43:40.072Z,5.68
2023-04-17T15:46:07.426Z,6.28
2023-04-17T15:48:34.661Z,7.53
2023-04-17T15:51:02.966Z,5.57
2023-04-17T15:53:30.170Z,6.03
2023-04-17T15:55:57.374Z,4.90
2023-04-17T15:58:24.572Z,6.57
2023-04-17T16:00:53.105Z,6.15
2023-04-17T16:03:20.482Z,5.93
2023-04-17T16:05:47.748Z,6.03
2023-04-17T16:08:14.937Z,6.07
2023-04-17T16:10:42.235Z,7.43
2023-04-17T16:13:09.419Z,5.65
2023-04-17T16:15:36.645Z,6.53
2023-04-17T16:18:05.340Z,5.70
2023-04-17T16:20:32.652Z,5.55
2023-04-17T16:22:59.843Z,6.30
2023-04-17T16:25:27.049Z,6.78
2023-04-17T16:27:54.249Z,5.65
2023-04-17T16:30:21.598Z,5.47
2023-04-17T16:32:50.014Z,5.65
2023-04-17T16:35:18.583Z,6.32
2023-04-17T16:37:45.789Z,6.50
2023-04-17T16:40:13.195Z,5.55
2023-04-17T16:42:40.997Z,6.43
2023-04-17T16:45:08.458Z,6.88
2023-04-17T16:47:35.731Z,5.45
2023-04-17T16:50:03.584Z,5.95
2023-04-17T16:52:32.067Z,5.22
2023-04-17T16:54:59.281Z,6.43
2023-04-17T16:57:26.459Z,6.18
2023-04-17T16:59:53.674Z,7.05
2023-04-17T17:02:20.946Z,7.22
2023-04-17T17:04:48.257Z,7.40
2023-04-17T17:07:15.478Z,5.93
2023-04-17T17:09:44.003Z,6.03
2023-04-17T17:12:11.787Z,6.28
2023-04-17T17:14:38.972Z,5.95
2023-04-17T17:17:06.173Z,6.93
2023-04-17T17:19:33.371Z,6.65
2023-04-17T17:22:00.655Z,7.10
2023-04-17T17:24:27.882Z,5.75
2023-04-17T17:26:56.979Z,6.18
2023-04-17T17:29:24.197Z,5.72
2023-04-17T17:31:51.434Z,5.60
2023-04-17T17:34:25.954Z,5.78
2023-04-17T17:36:54.091Z,6.50
2023-04-17T17:39:22.044Z,6.00
2023-04-17T17:41:49.611Z,5.82
2023-04-17T17:44:18.145Z,5.40
2023-04-17T17:46:45.455Z,5.35
2023-04-17T17:49:12.650Z,5.63
2023-04-17T17:51:39.884Z,6.00
2023-04-17T17:54:07.151Z,6.72
2023-04-17T17:56:34.814Z,5.72
2023-04-17T17:59:02.064Z,5.38
2023-04-17T18:01:30.872Z,5.25
2023-04-17T18:03:58.399Z,5.47
2023-04-17T18:06:26.581Z,6.63
2023-04-17T18:08:53.796Z,5.07
2023-04-17T18:11:21.088Z,5.75
2023-04-17T18:13:48.250Z,6.53
2023-04-17T18:16:15.513Z,5.20
2023-04-17T18:18:44.076Z,5.28
2023-04-17T18:21:12.150Z,5.53
2023-04-17T18:23:39.352Z,6.55
2023-04-17T18:26:06.667Z,5.88
2023-04-17T18:28:33.866Z,5.72
2023-04-17T18:31:01.098Z,5.97
2023-04-17T18:33:29.454Z,5.70
2023-04-17T18:35:57.990Z,6.45
2023-04-17T18:38:25.269Z,6.65
2023-04-17T18:40:54.023Z,4.95
2023-04-17T18:43:21.206Z,5.78
2023-04-17T18:45:48.403Z,5.30
2023-04-17T18:48:15.774Z,5.85
2023-04-17T18:50:43.020Z,5.32
2023-04-17T18:53:11.550Z,6.28
2023-04-17T18:55:38.797Z,7.53
2023-04-17T18:58:05.988Z,6.63
2023-04-17T19:00:33.204Z,5.57
2023-04-17T19:03:00.432Z,5.85
2023-04-17T19:05:27.753Z,5.53
2023-04-17T19:07:54.998Z,6.15
2023-04-17T19:10:24.587Z,6.13
2023-04-17T19:12:51.766Z,6.95
2023-04-17T19:15:18.980Z,6.15
2023-04-17T19:17:46.180Z,6.05
2023-04-17T19:20:13.543Z,7.53
2023-04-17T19:22:40.770Z,6.65
2023-04-17T19:25:08.333Z,8.23
2023-04-17T19:27:36.938Z,6.13
2023-04-17T19:30:04.478Z,5.72
2023-04-17T19:32:31.957Z,7.82
2023-04-17T19:34:59.280Z,6.20
2023-04-17T19:37:26.479Z,6.55
2023-04-17T19:39:56.514Z,7.20
2023-04-17T19:42:24.119Z,6.55
2023-04-17T19:44:52.689Z,6.28
2023-04-17T19:47:19.873Z,6.90
2023-04-17T19:49:47.085Z,6.47
2023-04-17T19:52:14.535Z,6.07
2023-04-17T19:54:43.655Z,5.93
2023-04-17T19:57:10.921Z,5.70
2023-04-17T19:59:38.132Z,5.78
2023-04-17T20:02:06.711Z,7.57
2023-04-17T20:04:33.943Z,6.70
2023-04-17T20:07:02.039Z,6.20
2023-04-17T20:09:29.229Z,5.88
2023-04-17T20:11:56.566Z,5.22
2023-04-17T20:14:24.832Z,4.85
2023-04-17T20:16:52.034Z,5.25
2023-04-17T20:19:20.597Z,6.13
2023-04-17T20:21:47.843Z,6.57
2023-04-17T20:24:15.987Z,5.70
2023-04-17T20:26:44.009Z,5.18
2023-04-17T20:29:11.304Z,5.30
2023-04-17T20:31:38.915Z,4.85
2023-04-17T20:34:06.119Z,5.10
2023-04-17T20:36:34.625Z,5.72
2023-04-17T20:39:01.796Z,5.75
2023-04-17T20:41:28.989Z,5.35
2023-04-17T20:43:59.148Z,4.65
2023-04-17T20:48:53.606Z,5.30
2023-04-17T20:51:21.538Z,4.95
2023-04-17T20:53:50.040Z,4.53
2023-04-17T20:56:17.247Z,4.32
2023-04-17T20:58:44.421Z,5.40
2023-04-17T21:01:11.620Z,4.57
2023-04-17T21:03:38.845Z,5.15
2023-04-17T21:06:06.228Z,4.22
2023-04-17T21:08:33.420Z,4.40
2023-04-17T21:11:01.983Z,4.50
2023-04-17T21:13:30.600Z,5.05
2023-04-17T21:15:57.853Z,5.13
2023-04-17T21:18:25.090Z,4.50
2023-04-17T21:20:52.463Z,4.65
2023-04-17T21:23:19.871Z,4.18
2023-04-17T21:25:47.132Z,4.22
2023-04-17T21:28:15.617Z,4.25
2023-04-17T21:30:42.798Z,3.92
2023-04-17T21:33:09.979Z,4.32
2023-04-17T21:35:37.255Z,4.25
2023-04-17T21:38:04.446Z,4.00
2023-04-17T21:40:33.578Z,3.88
2023-04-17T21:43:01.069Z,3.95
2023-04-17T21:45:29.617Z,4.30
2023-04-17T21:47:56.968Z,4.03
2023-04-17T21:50:24.229Z,3.88
2023-04-17T21:52:51.429Z,4.20
2023-04-17T21:55:18.666Z,4.20
2023-04-17T21:57:45.846Z,4.10
2023-04-17T22:00:14.352Z,3.75
2023-04-17T22:02:42.920Z,4.38
2023-04-17T22:05:10.346Z,4.00
2023-04-17T22:07:43.957Z,4.13
2023-04-17T22:10:18.877Z,3.65
2023-04-17T22:12:46.232Z,3.60
2023-04-17T22:15:13.424Z,3.83
2023-04-17T22:17:41.009Z,3.83
2023-04-17T22:20:10.514Z,3.40
2023-04-17T22:22:37.690Z,3.65
2023-04-17T22:25:05.254Z,3.30
2023-04-17T22:27:32.452Z,3.50
2023-04-17T22:29:59.645Z,3.40
2023-04-17T22:32:26.862Z,3.38
2023-04-17T22:34:54.085Z,3.42
2023-04-17T22:37:22.597Z,3.80
2023-04-17T22:39:50.015Z,3.72
2023-04-17T22:42:17.195Z,4.32
2023-04-17T22:44:44.459Z,3.40
2023-04-17T22:47:11.670Z,3.45
2023-04-17T22:49:38.884Z,3.35
2023-04-17T22:52:06.408Z,3.50
2023-04-17T22:54:34.902Z,3.53
2023-04-17T22:57:02.737Z,3.67
2023-04-17T22:59:30.218Z,3.70
2023-04-17T23:01:57.583Z,3.30
2023-04-17T23:04:24.919Z,3.78
2023-04-17T23:06:52.121Z,3.40
2023-04-17T23:09:19.320Z,3.28
2023-04-17T23:11:47.910Z,3.65
2023-04-17T23:14:15.273Z,3.50
2023-04-17T23:16:42.600Z,3.30
2023-04-17T23:19:09.793Z,3.35
2023-04-17T23:21:36.989Z,3.15
2023-04-17T23:24:04.279Z,3.00
2023-04-17T23:26:31.477Z,3.03
2023-04-17T23:29:00.012Z,3.20
2023-04-17T23:31:27.294Z,3.53
2023-04-17T23:33:54.480Z,3.10
2023-04-17T23:36:21.669Z,3.50
2023-04-17T23:38:48.847Z,3.10
2023-04-17T23:41:16.058Z,3.17
2023-04-17T23:43:43.236Z,2.97
2023-04-17T23:46:11.779Z,3.40
2023-04-17T23:48:39.025Z,3.15
2023-04-17T23:51:06.345Z,3.45
2023-04-17T23:53:33.686Z,3.30
2023-04-17T23:56:01.318Z,3.30
2023-04-17T23:58:28.519Z,3.00
